createdAt,value
2017-01-07T00:01:28.796Z,0
2017-01-07T00:04:01.182Z,0
2017-01-07T00:06:33.618Z,0
2017-01-07T00:09:06.012Z,0
2017-01-07T00:11:38.411Z,0
2017-01-07T00:14:11.018Z,0
2017-01-07T00:16:43.414Z,0
2017-01-07T00:19:15.796Z,0
2017-01-07T00:21:48.178Z,0
2017-01-07T00:24:20.594Z,0
2017-01-07T00:26:53.173Z,0
2017-01-07T00:29:25.832Z,0
2017-01-07T00:31:58.272Z,0
2017-01-07T00:34:30.655Z,0
2017-01-07T00:37:03.065Z,0
2017-01-07T00:39:35.465Z,0
2017-01-07T00:42:08.028Z,0
2017-01-07T00:44:40.418Z,0
2017-01-07T00:47:12.803Z,0
2017-01-07T00:49:45.182Z,0
2017-01-07T00:52:17.891Z,0
2017-01-07T00:54:50.372Z,0
2017-01-07T00:57:22.757Z,0
2017-01-07T00:59:55.156Z,0
2017-01-07T01:02:27.540Z,0
2017-01-07T01:05:00.301Z,0
2017-01-07T01:07:32.696Z,0
2017-01-07T01:10:05.080Z,0
2017-01-07T01:12:37.469Z,0
2017-01-07T01:15:10.334Z,0
2017-01-07T01:17:42.722Z,0
2017-01-07T01:20:15.718Z,0
2017-01-07T01:22:48.318Z,0
2017-01-07T01:25:20.726Z,0
2017-01-07T01:27:53.109Z,0
2017-01-07T01:30:25.508Z,0
2017-01-07T01:32:57.901Z,0
2017-01-07T01:35:30.312Z,0
2017-01-07T01:38:03.116Z,0
2017-01-07T01:40:35.513Z,0
2017-01-07T01:43:07.903Z,0
2017-01-07T01:45:40.287Z,0
2017-01-07T01:48:12.750Z,0
2017-01-07T01:50:45.184Z,0
2017-01-07T01:53:17.574Z,0
2017-01-07T01:55:49.969Z,0
2017-01-07T01:58:22.358Z,0
2017-01-07T02:00:54.752Z,0
2017-01-07T02:03:27.150Z,0
2017-01-07T02:05:59.543Z,0
2017-01-07T02:08:31.945Z,0
2017-01-07T02:11:04.329Z,0
2017-01-07T02:13:36.722Z,0
2017-01-07T02:16:09.119Z,0
2017-01-07T02:18:41.510Z,0
2017-01-07T02:21:13.909Z,0
2017-01-07T02:23:46.284Z,0
2017-01-07T02:26:18.676Z,0
2017-01-07T02:28:51.061Z,0
2017-01-07T02:31:23.469Z,0
2017-01-07T02:33:55.857Z,0
2017-01-07T02:36:28.265Z,0
2017-01-07T02:39:00.646Z,0
2017-01-07T02:41:33.042Z,0
2017-01-07T02:44:05.432Z,0
2017-01-07T02:46:37.818Z,0
2017-01-07T02:49:10.195Z,0
2017-01-07T02:51:42.585Z,0
2017-01-07T02:54:14.973Z,0
2017-01-07T02:56:47.381Z,0
2017-01-07T02:59:19.759Z,0
2017-01-07T03:01:52.168Z,0
2017-01-07T03:04:24.536Z,0
2017-01-07T03:06:56.928Z,0
2017-01-07T03:09:29.315Z,0
2017-01-07T03:12:02.344Z,0
2017-01-07T03:14:34.756Z,0
2017-01-07T03:17:07.129Z,0
2017-01-07T03:19:39.529Z,0
2017-01-07T03:22:11.905Z,0
2017-01-07T03:24:44.302Z,0
2017-01-07T03:27:16.687Z,0
2017-01-07T03:29:49.079Z,0
2017-01-07T03:32:21.469Z,0
2017-01-07T03:34:53.851Z,0
2017-01-07T03:37:26.270Z,0
2017-01-07T03:39:58.648Z,0
2017-01-07T03:42:31.044Z,0
2017-01-07T03:45:03.426Z,0
2017-01-07T03:47:35.815Z,0
2017-01-07T03:50:08.198Z,0
2017-01-07T03:52:40.605Z,0
2017-01-07T03:55:12.989Z,0
2017-01-07T03:57:45.402Z,0
2017-01-07T04:00:17.786Z,0
2017-01-07T04:02:50.393Z,0
2017-01-07T04:05:22.801Z,0
2017-01-07T04:07:55.182Z,0
2017-01-07T04:10:27.565Z,0
2017-01-07T04:12:59.956Z,0
2017-01-07T04:15:32.358Z,0
2017-01-07T04:18:04.745Z,0
2017-01-07T04:20:37.148Z,0
2017-01-07T04:23:09.561Z,0
2017-01-07T04:25:41.940Z,0
2017-01-07T04:28:14.345Z,0
2017-01-07T04:30:46.730Z,0
2017-01-07T04:33:19.347Z,0
2017-01-07T04:35:51.719Z,0
2017-01-07T04:38:24.117Z,0
2017-01-07T04:40:56.691Z,0
2017-01-07T04:43:29.088Z,0
2017-01-07T04:46:01.484Z,0
2017-01-07T04:48:33.879Z,0
2017-01-07T04:51:06.269Z,0
2017-01-07T04:53:38.661Z,0
2017-01-07T04:56:11.063Z,0
2017-01-07T04:58:43.472Z,0
2017-01-07T05:01:15.858Z,0
2017-01-07T05:03:48.288Z,0
2017-01-07T05:06:20.662Z,0
2017-01-07T05:08:53.051Z,0
2017-01-07T05:11:25.439Z,0
2017-01-07T05:13:57.855Z,0
2017-01-07T05:16:30.258Z,0
2017-01-07T05:19:02.634Z,0
2017-01-07T05:21:35.046Z,0
2017-01-07T05:24:07.437Z,0
2017-01-07T05:26:39.839Z,0
2017-01-07T05:29:12.232Z,0
2017-01-07T05:31:44.608Z,0
2017-01-07T05:34:16.997Z,0
2017-01-07T05:36:49.385Z,0
2017-01-07T05:39:21.798Z,0
2017-01-07T05:41:54.191Z,0
2017-01-07T05:44:26.596Z,0
2017-01-07T05:46:58.981Z,0
2017-01-07T05:49:31.370Z,0
2017-01-07T05:52:03.760Z,0
2017-01-07T05:54:36.141Z,0
2017-01-07T05:57:08.525Z,0
2017-01-07T05:59:40.951Z,0
2017-01-07T06:02:13.326Z,0
2017-01-07T06:04:45.712Z,0
2017-01-07T06:07:18.301Z,0
2017-01-07T06:09:50.694Z,0
2017-01-07T06:12:23.105Z,0
2017-01-07T06:14:55.485Z,0
2017-01-07T06:17:27.894Z,0
2017-01-07T06:20:00.296Z,0
2017-01-07T06:22:32.693Z,0
2017-01-07T06:25:05.092Z,0
2017-01-07T06:27:37.488Z,0
2017-01-07T06:30:09.896Z,0
2017-01-07T06:32:42.268Z,0
2017-01-07T06:35:14.674Z,0
2017-01-07T06:37:47.046Z,0
2017-01-07T06:40:19.453Z,0
2017-01-07T06:42:51.828Z,0
2017-01-07T06:45:24.224Z,0
2017-01-07T06:47:56.624Z,0
2017-01-07T06:50:29.027Z,0
2017-01-07T06:53:01.419Z,0
2017-01-07T06:55:33.821Z,0
2017-01-07T06:58:06.201Z,0
2017-01-07T07:00:38.583Z,0
2017-01-07T07:03:10.975Z,0
2017-01-07T07:05:43.380Z,0
2017-01-07T07:08:15.767Z,1
2017-01-07T07:10:48.185Z,1
2017-01-07T07:13:20.566Z,1
2017-01-07T07:15:52.963Z,1
2017-01-07T07:18:25.370Z,2
2017-01-07T07:20:57.765Z,2
2017-01-07T07:23:30.151Z,1
2017-01-07T07:26:02.536Z,3
2017-01-07T07:28:34.939Z,3
2017-01-07T07:31:07.323Z,3
2017-01-07T07:33:39.759Z,3
2017-01-07T07:36:12.130Z,4
2017-01-07T07:38:44.547Z,5
2017-01-07T07:41:16.959Z,4
2017-01-07T07:43:49.346Z,7
2017-01-07T07:46:21.745Z,6
2017-01-07T07:48:54.120Z,7
2017-01-07T07:51:26.507Z,8
2017-01-07T07:53:58.902Z,10
2017-01-07T07:56:31.296Z,11
2017-01-07T07:59:03.667Z,12
2017-01-07T08:01:36.071Z,15
2017-01-07T08:04:08.500Z,18
2017-01-07T08:06:40.883Z,20
2017-01-07T08:09:13.275Z,21
2017-01-07T08:11:45.680Z,23
2017-01-07T08:14:18.082Z,26
2017-01-07T08:16:50.470Z,28
2017-01-07T08:19:22.910Z,29
2017-01-07T08:21:55.324Z,28
2017-01-07T08:31:16.757Z,33
2017-01-07T08:33:49.222Z,30
2017-01-07T08:36:21.604Z,30
2017-01-07T08:38:54.077Z,35
2017-01-07T08:41:26.486Z,37
2017-01-07T08:43:58.904Z,37
2017-01-07T08:46:31.441Z,35
2017-01-07T08:49:03.827Z,36
2017-01-07T08:51:36.430Z,38
2017-01-07T08:54:08.831Z,37
2017-01-07T08:56:41.217Z,32
2017-01-07T08:59:13.613Z,28
2017-01-07T09:01:46.015Z,26
2017-01-07T09:04:18.589Z,28
2017-01-07T09:06:51.089Z,34
2017-01-07T09:09:23.517Z,37
2017-01-07T09:11:55.963Z,41
2017-01-07T09:14:28.398Z,40
2017-01-07T09:17:00.809Z,40
2017-01-07T09:19:33.238Z,45
2017-01-07T09:22:05.641Z,39
2017-01-07T09:24:38.048Z,33
2017-01-07T09:27:10.435Z,57
2017-01-07T09:29:42.854Z,61
2017-01-07T09:32:15.282Z,69
2017-01-07T09:34:47.686Z,65
2017-01-07T09:37:20.082Z,62
2017-01-07T09:39:52.507Z,67
2017-01-07T09:42:24.914Z,70
2017-01-07T09:44:57.342Z,70
2017-01-07T09:47:31.054Z,62
2017-01-07T09:52:43.354Z,59
2017-01-07T09:55:15.735Z,57
2017-01-07T09:58:02.551Z,56
2017-01-07T10:01:18.876Z,58
2017-01-07T10:03:52.092Z,62
2017-01-07T10:06:24.892Z,59
2017-01-07T10:08:57.460Z,57
2017-01-07T10:11:30.057Z,56
2017-01-07T10:14:03.003Z,60
2017-01-07T10:16:35.594Z,65
2017-01-07T10:19:09.335Z,67
2017-01-07T10:21:42.410Z,77
2017-01-07T10:24:14.792Z,79
2017-01-07T10:26:47.194Z,96
2017-01-07T10:29:19.628Z,79
2017-01-07T10:31:52.411Z,77
2017-01-07T10:34:24.993Z,72
2017-01-07T10:36:57.433Z,67
2017-01-07T10:39:29.816Z,48
2017-01-07T10:42:02.287Z,55
2017-01-07T10:44:34.674Z,56
2017-01-07T10:47:07.090Z,47
2017-01-07T10:49:39.511Z,52
2017-01-07T10:52:11.926Z,50
2017-01-07T10:54:44.299Z,56
2017-01-07T10:57:16.679Z,53
2017-01-07T10:59:49.087Z,44
2017-01-07T11:02:21.485Z,41
2017-01-07T11:04:53.856Z,35
2017-01-07T11:07:26.234Z,45
2017-01-07T11:09:58.615Z,39
2017-01-07T11:12:31.042Z,49
2017-01-07T11:15:03.448Z,54
2017-01-07T11:17:35.854Z,58
2017-01-07T11:20:08.224Z,59
2017-01-07T11:22:40.635Z,70
2017-01-07T11:25:13.012Z,74
2017-01-07T11:27:45.419Z,55
2017-01-07T11:30:17.844Z,58
2017-01-07T11:32:50.231Z,66
2017-01-07T11:35:22.629Z,44
2017-01-07T11:37:55.015Z,55
2017-01-07T11:40:27.399Z,57
2017-01-07T11:42:59.789Z,53
2017-01-07T11:45:32.192Z,49
2017-01-07T11:48:04.575Z,50
2017-01-07T11:50:36.961Z,41
2017-01-07T11:53:09.363Z,46
2017-01-07T11:55:41.782Z,42
2017-01-07T11:58:14.181Z,41
2017-01-07T12:00:46.570Z,49
2017-01-07T12:03:18.960Z,50
2017-01-07T12:05:51.377Z,54
2017-01-07T12:08:23.789Z,62
2017-01-07T12:10:56.177Z,56
2017-01-07T12:13:28.574Z,66
2017-01-07T12:16:00.969Z,63
2017-01-07T12:18:33.368Z,63
2017-01-07T12:21:05.780Z,64
2017-01-07T12:26:18.111Z,61
2017-01-07T12:28:52.132Z,63
2017-01-07T12:31:24.745Z,68
2017-01-07T12:33:57.087Z,78
2017-01-07T12:36:29.530Z,77
2017-01-07T12:39:01.862Z,84
2017-01-07T12:41:34.223Z,87
2017-01-07T12:44:06.572Z,75
2017-01-07T12:46:38.922Z,70
2017-01-07T12:49:11.291Z,75
2017-01-07T12:51:44.012Z,64
2017-01-07T12:54:16.749Z,59
2017-01-07T12:56:49.219Z,56
2017-01-07T12:59:21.589Z,62
2017-01-07T13:01:53.977Z,56
2017-01-07T13:04:26.327Z,41
2017-01-07T13:06:58.710Z,36
2017-01-07T13:09:31.043Z,34
2017-01-07T13:12:03.388Z,35
2017-01-07T13:14:35.917Z,37
2017-01-07T13:17:08.243Z,39
2017-01-07T13:19:40.573Z,39
2017-01-07T13:22:12.912Z,33
2017-01-07T13:24:45.224Z,32
2017-01-07T13:27:17.761Z,31
2017-01-07T13:29:50.060Z,32
2017-01-07T13:32:22.394Z,74
2017-01-07T13:34:54.716Z,211
2017-01-07T13:37:27.031Z,102
2017-01-07T13:39:59.554Z,88
2017-01-07T13:42:31.946Z,85
2017-01-07T13:45:04.493Z,87
2017-01-07T13:47:37.047Z,82
2017-01-07T13:50:09.612Z,76
2017-01-07T13:52:42.128Z,73
2017-01-07T13:55:14.487Z,74
2017-01-07T13:57:46.848Z,75
2017-01-07T14:00:19.179Z,71
2017-01-07T14:02:51.519Z,71
2017-01-07T14:05:24.086Z,68
2017-01-07T14:07:56.409Z,68
2017-01-07T14:10:28.740Z,63
2017-01-07T14:13:01.111Z,67
2017-01-07T14:15:33.434Z,58
2017-01-07T14:18:05.904Z,65
2017-01-07T14:20:38.224Z,62
2017-01-07T14:23:10.545Z,9
2017-01-07T14:25:42.883Z,9
2017-01-07T14:28:15.197Z,9
2017-01-07T14:30:47.512Z,8
2017-01-07T14:33:19.838Z,8
2017-01-07T14:35:52.175Z,8
2017-01-07T14:38:24.500Z,7
2017-01-07T14:40:56.823Z,7
2017-01-07T14:43:29.141Z,7
2017-01-07T14:46:01.446Z,6
2017-01-07T14:48:33.791Z,6
2017-01-07T14:51:06.104Z,6
2017-01-07T14:53:38.430Z,5
2017-01-07T14:56:10.814Z,4
2017-01-07T14:58:43.137Z,3
2017-01-07T15:01:15.468Z,3
2017-01-07T15:03:47.798Z,3
2017-01-07T15:06:20.135Z,1
2017-01-07T15:08:52.457Z,3
2017-01-07T15:11:24.791Z,2
2017-01-07T15:13:57.091Z,2
2017-01-07T15:16:29.420Z,1
2017-01-07T15:19:01.716Z,1
2017-01-07T15:21:34.121Z,1
2017-01-07T15:24:06.449Z,1
2017-01-07T15:26:38.785Z,0
2017-01-07T15:29:11.107Z,0
2017-01-07T15:31:43.452Z,0
2017-01-07T15:34:15.785Z,0
2017-01-07T15:36:48.109Z,0
2017-01-07T15:39:20.436Z,0
2017-01-07T15:41:52.776Z,0
2017-01-07T15:44:25.084Z,0
2017-01-07T15:46:57.407Z,0
2017-01-07T15:49:29.745Z,0
2017-01-07T15:52:02.074Z,0
2017-01-07T15:54:34.390Z,0
2017-01-07T15:57:06.723Z,0
2017-01-07T15:59:39.045Z,0
2017-01-07T16:02:11.349Z,0
2017-01-07T16:04:43.664Z,0
2017-01-07T16:07:15.976Z,0
2017-01-07T16:09:48.278Z,0
2017-01-07T16:12:20.588Z,0
2017-01-07T16:14:52.918Z,0
2017-01-07T16:17:25.229Z,0
2017-01-07T16:19:57.555Z,0
2017-01-07T16:22:29.864Z,0
2017-01-07T16:25:02.185Z,0
2017-01-07T16:27:34.518Z,0
2017-01-07T16:30:06.861Z,0
2017-01-07T16:32:39.165Z,38
2017-01-07T16:35:11.498Z,48
2017-01-07T16:37:43.848Z,47
2017-01-07T16:40:16.159Z,56
2017-01-07T16:42:48.494Z,53
2017-01-07T16:45:20.848Z,48
2017-01-07T16:47:53.158Z,52
2017-01-07T16:50:25.564Z,53
2017-01-07T16:52:57.869Z,51
2017-01-07T16:55:30.329Z,47
2017-01-07T16:58:02.644Z,46
2017-01-07T17:00:34.955Z,1
2017-01-07T17:03:07.291Z,1
2017-01-07T17:05:39.625Z,1
2017-01-07T17:08:11.967Z,0
2017-01-07T17:10:44.282Z,0
2017-01-07T17:13:16.591Z,0
2017-01-07T17:15:48.919Z,0
2017-01-07T17:18:21.231Z,0
2017-01-07T17:20:53.688Z,0
2017-01-07T17:23:26.002Z,0
2017-01-07T17:25:58.310Z,0
2017-01-07T17:28:30.637Z,0
2017-01-07T17:31:03.188Z,0
2017-01-07T17:33:35.532Z,0
2017-01-07T17:36:07.851Z,0
2017-01-07T17:38:40.159Z,0
2017-01-07T17:41:12.471Z,0
2017-01-07T17:43:44.797Z,0
2017-01-07T17:46:17.131Z,0
2017-01-07T17:48:49.439Z,0
2017-01-07T17:51:21.793Z,0
2017-01-07T17:53:54.094Z,0
2017-01-07T17:56:26.427Z,0
2017-01-07T17:58:58.730Z,0
2017-01-07T18:01:31.055Z,0
2017-01-07T18:04:03.360Z,0
2017-01-07T18:06:35.694Z,0
2017-01-07T18:09:08.053Z,0
2017-01-07T18:11:40.365Z,0
2017-01-07T18:14:12.693Z,0
2017-01-07T18:16:44.998Z,0
2017-01-07T18:19:17.323Z,0
2017-01-07T18:21:49.642Z,0
2017-01-07T18:24:21.970Z,0
2017-01-07T18:26:54.282Z,0
2017-01-07T18:29:26.602Z,0
2017-01-07T18:31:58.917Z,0
2017-01-07T18:34:31.250Z,0
2017-01-07T18:37:03.589Z,0
2017-01-07T18:39:35.903Z,0
2017-01-07T18:42:08.216Z,0
2017-01-07T18:44:40.545Z,0
2017-01-07T18:47:12.874Z,0
2017-01-07T18:49:45.203Z,0
2017-01-07T18:52:17.513Z,0
2017-01-07T18:54:49.828Z,0
2017-01-07T18:57:22.141Z,1
2017-01-07T18:59:54.466Z,0
2017-01-07T19:02:26.800Z,0
2017-01-07T19:04:59.132Z,0
2017-01-07T19:07:31.476Z,0
2017-01-07T19:10:03.806Z,0
2017-01-07T19:12:36.130Z,0
2017-01-07T19:15:08.455Z,0
2017-01-07T19:17:40.779Z,0
2017-01-07T19:20:13.102Z,0
2017-01-07T19:22:45.440Z,0
2017-01-07T19:25:17.763Z,0
2017-01-07T19:27:50.098Z,0
2017-01-07T19:30:22.411Z,0
2017-01-07T19:32:54.726Z,0
2017-01-07T19:35:27.043Z,0
2017-01-07T19:37:59.389Z,0
2017-01-07T19:40:31.718Z,0
2017-01-07T19:43:04.056Z,0
2017-01-07T19:45:36.389Z,0
2017-01-07T19:48:08.724Z,0
2017-01-07T19:50:41.051Z,0
2017-01-07T19:53:13.380Z,0
2017-01-07T19:55:45.723Z,0
2017-01-07T19:58:18.076Z,0
2017-01-07T20:00:50.436Z,0
2017-01-07T20:03:22.777Z,0
2017-01-07T20:05:55.120Z,0
2017-01-07T20:08:27.477Z,0
2017-01-07T20:10:59.793Z,0
2017-01-07T20:13:32.120Z,0
2017-01-07T20:16:04.470Z,0
2017-01-07T20:18:36.789Z,0
2017-01-07T20:21:09.153Z,0
2017-01-07T20:23:41.479Z,0
2017-01-07T20:26:13.829Z,0
2017-01-07T20:28:46.359Z,0
2017-01-07T20:31:18.707Z,0
2017-01-07T20:33:51.040Z,0
2017-01-07T20:36:23.400Z,0
2017-01-07T20:38:55.723Z,8
2017-01-07T20:41:28.060Z,0
2017-01-07T20:44:00.400Z,0
2017-01-07T20:46:32.757Z,0
2017-01-07T20:49:05.132Z,0
2017-01-07T20:51:37.503Z,0
2017-01-07T20:54:10.459Z,0
2017-01-07T20:56:42.794Z,0
2017-01-07T20:59:15.124Z,0
2017-01-07T21:01:47.527Z,0
2017-01-07T21:04:19.891Z,0
2017-01-07T21:06:52.205Z,0
2017-01-07T21:09:24.532Z,0
2017-01-07T21:11:56.858Z,0
2017-01-07T21:14:29.319Z,2
2017-01-07T21:17:01.676Z,7
2017-01-07T21:19:34.063Z,1
2017-01-07T21:22:06.365Z,0
2017-01-07T21:24:38.728Z,0
2017-01-07T21:27:11.043Z,0
2017-01-07T21:29:43.353Z,0
2017-01-07T21:32:15.676Z,0
2017-01-07T21:34:47.999Z,0
2017-01-07T21:37:20.312Z,0
2017-01-07T21:39:52.628Z,0
2017-01-07T21:42:24.962Z,0
2017-01-07T21:44:57.288Z,0
2017-01-07T21:47:29.635Z,0
2017-01-07T21:50:02.102Z,0
2017-01-07T21:52:34.428Z,0
2017-01-07T21:55:06.761Z,0
2017-01-07T21:57:39.113Z,0
2017-01-07T22:00:11.432Z,0
2017-01-07T22:02:43.733Z,0
2017-01-07T22:05:16.055Z,0
2017-01-07T22:07:48.360Z,0
2017-01-07T22:10:20.699Z,0
2017-01-07T22:12:53.008Z,0
2017-01-07T22:15:25.490Z,0
2017-01-07T22:17:57.794Z,0
2017-01-07T22:20:30.121Z,0
2017-01-07T22:23:02.492Z,0
2017-01-07T22:25:34.797Z,0
2017-01-07T22:28:07.113Z,0
2017-01-07T22:30:39.445Z,0
2017-01-07T22:33:11.761Z,0
2017-01-07T22:35:44.067Z,0
2017-01-07T22:38:16.385Z,0
2017-01-07T22:40:48.698Z,0
2017-01-07T22:43:21.036Z,0
2017-01-07T22:45:53.372Z,0
2017-01-07T22:48:25.715Z,0
2017-01-07T22:50:58.042Z,0
2017-01-07T22:53:30.354Z,0
2017-01-07T22:56:02.756Z,0
2017-01-07T22:58:35.086Z,0
2017-01-07T23:01:07.410Z,0
2017-01-07T23:03:39.723Z,0
2017-01-07T23:06:12.037Z,0
2017-01-07T23:08:44.343Z,0
2017-01-07T23:11:16.674Z,0
2017-01-07T23:13:49.008Z,0
2017-01-07T23:16:21.337Z,0
2017-01-07T23:18:53.653Z,0
2017-01-07T23:21:25.974Z,0
2017-01-07T23:23:58.294Z,0
2017-01-07T23:26:30.616Z,0
2017-01-07T23:29:02.918Z,0
2017-01-07T23:31:35.232Z,0
2017-01-07T23:34:07.553Z,0
2017-01-07T23:36:39.863Z,0
2017-01-07T23:39:12.254Z,0
2017-01-07T23:41:44.593Z,0
2017-01-07T23:44:16.930Z,0
2017-01-07T23:46:49.267Z,0
2017-01-07T23:49:21.575Z,0
2017-01-07T23:52:08.918Z,0
2017-01-07T23:54:41.249Z,0
2017-01-07T23:57:13.567Z,0
2017-01-07T23:59:45.903Z,0
